createdAt,value
2019-04-11T00:01:12.054Z,7.60
2019-04-11T00:03:58.492Z,7.60
2019-04-11T00:06:43.502Z,7.60
2019-04-11T00:09:36.734Z,7.50
2019-04-11T00:12:22.139Z,7.50
2019-04-11T00:15:06.967Z,7.40
2019-04-11T00:18:14.441Z,7.40
2019-04-11T00:21:00.320Z,7.40
2019-04-11T00:23:46.077Z,7.30
2019-04-11T00:26:30.940Z,7.30
2019-04-11T00:29:16.331Z,7.30
2019-04-11T00:32:01.352Z,7.30
2019-04-11T00:34:47.012Z,7.20
2019-04-11T00:37:31.440Z,7.20
2019-04-11T00:40:17.299Z,7.10
2019-04-11T00:43:07.346Z,7.10
2019-04-11T00:45:52.308Z,7.10
2019-04-11T00:48:37.736Z,7.00
2019-04-11T00:51:23.495Z,7.00
2019-04-11T00:54:08.784Z,6.90
2019-04-11T00:56:54.702Z,6.90
2019-04-11T00:59:40.616Z,6.80
2019-04-11T01:02:25.316Z,6.90
2019-04-11T01:05:10.238Z,6.80
2019-04-11T01:07:55.402Z,6.80
2019-04-11T01:10:41.513Z,6.70
2019-04-11T01:13:26.312Z,6.70
2019-04-11T01:16:30.036Z,6.70
2019-04-11T01:19:14.738Z,6.60
2019-04-11T01:21:59.616Z,6.50
2019-04-11T01:24:44.439Z,6.50
2019-04-11T01:27:29.880Z,6.40
2019-04-11T01:30:16.984Z,6.30
2019-04-11T01:33:02.500Z,6.30
2019-04-11T01:35:47.759Z,6.20
2019-04-11T01:38:34.648Z,6.30
2019-04-11T01:41:20.457Z,6.20
2019-04-11T01:44:07.123Z,6.20
2019-04-11T01:46:51.464Z,6.10
2019-04-11T01:49:36.512Z,6.10
2019-04-11T01:52:22.335Z,6.10
2019-04-11T01:55:08.138Z,6.00
2019-04-11T01:57:54.076Z,6.00
2019-04-11T02:00:58.794Z,6.00
2019-04-11T02:04:00.115Z,6.00
2019-04-11T02:06:45.803Z,6.00
2019-04-11T02:09:30.638Z,5.90
2019-04-11T02:12:16.282Z,5.90
2019-04-11T02:15:01.288Z,5.90
2019-04-11T02:17:46.745Z,5.90
2019-04-11T02:20:31.406Z,5.90
2019-04-11T02:23:24.323Z,5.80
2019-04-11T02:26:17.103Z,5.80
2019-04-11T02:29:03.473Z,5.80
2019-04-11T02:31:48.454Z,5.80
2019-04-11T02:34:33.010Z,5.70
2019-04-11T02:37:19.600Z,5.70
2019-04-11T02:40:11.200Z,5.70
2019-04-11T02:42:57.240Z,5.80
2019-04-11T02:45:52.616Z,5.70
2019-04-11T02:48:28.882Z,5.70
2019-04-11T02:51:14.644Z,5.70
2019-04-11T02:54:00.025Z,5.70
2019-04-11T02:56:50.268Z,5.60
2019-04-11T02:59:34.603Z,5.60
2019-04-11T03:02:19.623Z,5.50
2019-04-11T03:05:07.091Z,5.40
2019-04-11T03:07:53.993Z,5.30
2019-04-11T03:10:43.542Z,5.20
2019-04-11T03:13:38.783Z,5.20
2019-04-11T03:16:35.314Z,5.10
2019-04-11T03:19:28.480Z,5.10
2019-04-11T03:21:58.824Z,5.00
2019-04-11T03:24:43.745Z,5.00
2019-04-11T03:27:30.410Z,5.00
2019-04-11T03:30:19.845Z,5.00
2019-04-11T03:33:54.549Z,4.90
2019-04-11T03:38:53.034Z,4.90
2019-04-11T03:41:37.297Z,4.80
2019-04-11T03:44:16.649Z,4.80
2019-04-11T03:47:12.877Z,4.70
2019-04-11T03:49:49.159Z,4.70
2019-04-11T03:52:28.245Z,4.70
2019-04-11T03:55:13.599Z,4.60
2019-04-11T03:58:00.994Z,4.60
2019-04-11T04:00:49.526Z,4.60
2019-04-11T04:03:34.286Z,4.60
2019-04-11T04:06:19.248Z,4.60
2019-04-11T04:09:04.420Z,4.50
2019-04-11T04:11:54.536Z,4.50
2019-04-11T04:14:44.524Z,4.50
2019-04-11T04:17:35.308Z,4.50
2019-04-11T04:20:36.938Z,4.40
2019-04-11T04:23:24.893Z,4.50
2019-04-11T04:26:11.962Z,4.40
2019-04-11T04:28:57.801Z,4.40
2019-04-11T04:31:42.585Z,4.40
2019-04-11T04:34:28.364Z,4.40
2019-04-11T04:37:14.145Z,4.30
2019-04-11T04:40:19.419Z,4.30
2019-04-11T04:42:49.903Z,4.30
2019-04-11T04:45:49.499Z,4.30
2019-04-11T04:48:22.330Z,4.30
2019-04-11T04:51:08.883Z,4.30
2019-04-11T04:53:55.521Z,4.30
2019-04-11T04:56:46.007Z,4.30
2019-04-11T04:59:32.030Z,4.40
2019-04-11T05:02:18.450Z,4.40
2019-04-11T05:05:06.118Z,4.40
2019-04-11T05:07:51.947Z,4.40
2019-04-11T05:10:37.995Z,4.40
2019-04-11T05:13:23.940Z,4.40
2019-04-11T05:16:17.224Z,4.50
2019-04-11T05:18:55.088Z,4.50
2019-04-11T05:21:39.890Z,4.50
2019-04-11T05:24:24.547Z,4.60
2019-04-11T05:27:10.366Z,4.70
2019-04-11T05:29:58.509Z,4.70
2019-04-11T05:32:43.205Z,4.80
2019-04-11T05:35:27.681Z,4.80
2019-04-11T05:38:12.489Z,4.80
2019-04-11T05:40:57.283Z,4.90
2019-04-11T05:43:42.148Z,5.00
2019-04-11T05:46:35.306Z,5.00
2019-04-11T05:49:21.074Z,5.20
2019-04-11T05:52:06.528Z,5.30
2019-04-11T05:54:54.254Z,5.30
2019-04-11T05:57:41.555Z,5.30
2019-04-11T06:00:30.643Z,5.40
2019-04-11T06:03:15.590Z,5.50
2019-04-11T06:06:06.441Z,5.60
2019-04-11T06:08:54.188Z,5.60
2019-04-11T06:11:45.300Z,5.60
2019-04-11T06:14:35.402Z,5.70
2019-04-11T06:17:21.858Z,5.90
2019-04-11T06:20:08.497Z,5.90
2019-04-11T06:22:56.123Z,6.00
2019-04-11T06:25:46.822Z,6.10
2019-04-11T06:28:33.931Z,6.10
2019-04-11T06:31:38.170Z,6.30
2019-04-11T06:34:26.570Z,6.30
2019-04-11T06:37:13.893Z,6.40
2019-04-11T06:40:01.311Z,6.50
2019-04-11T06:42:52.188Z,6.60
2019-04-11T06:45:48.134Z,6.60
2019-04-11T06:48:35.768Z,6.70
2019-04-11T06:51:32.449Z,6.80
2019-04-11T06:54:28.725Z,6.90
2019-04-11T06:57:15.987Z,6.90
2019-04-11T07:00:03.009Z,7.00
2019-04-11T07:02:49.899Z,7.10
2019-04-11T07:05:36.212Z,7.20
2019-04-11T07:08:23.972Z,7.30
2019-04-11T07:11:11.477Z,7.40
2019-04-11T07:13:57.994Z,7.40
2019-04-11T07:17:07.186Z,7.50
2019-04-11T07:20:02.547Z,7.50
2019-04-11T07:23:07.915Z,7.60
2019-04-11T07:25:54.192Z,7.70
2019-04-11T07:28:41.690Z,7.70
2019-04-11T07:31:46.820Z,7.80
2019-04-11T07:34:50.252Z,7.80
2019-04-11T07:37:36.486Z,7.90
2019-04-11T07:40:26.901Z,8.00
2019-04-11T07:43:13.868Z,8.20
2019-04-11T07:46:09.856Z,8.20
2019-04-11T07:48:54.834Z,8.20
2019-04-11T07:51:40.989Z,8.20
2019-04-11T07:54:25.896Z,8.30
2019-04-11T07:57:31.205Z,8.40
2019-04-11T08:00:41.960Z,8.40
2019-04-11T08:03:40.178Z,8.50
2019-04-11T08:06:26.855Z,8.60
2019-04-11T08:09:22.772Z,8.70
2019-04-11T08:12:12.868Z,8.80
2019-04-11T08:14:59.384Z,8.90
2019-04-11T08:17:46.038Z,9.00
2019-04-11T08:20:41.839Z,9.10
2019-04-11T08:23:27.697Z,9.10
2019-04-11T08:26:17.935Z,9.20
2019-04-11T08:29:10.072Z,9.20
2019-04-11T08:32:00.531Z,9.30
2019-04-11T08:34:47.921Z,9.40
2019-04-11T08:37:51.904Z,9.40
2019-04-11T08:40:55.510Z,9.40
2019-04-11T08:43:41.494Z,9.40
2019-04-11T08:46:35.142Z,9.40
2019-04-11T08:49:33.274Z,9.50
2019-04-11T08:52:24.278Z,9.50
2019-04-11T08:55:10.996Z,9.60
2019-04-11T09:01:00.687Z,9.70
2019-04-11T09:04:03.042Z,9.80
2019-04-11T09:06:40.981Z,9.70
2019-04-11T09:09:31.506Z,9.60
2019-04-11T09:12:16.413Z,9.70
2019-04-11T09:15:19.138Z,9.80
2019-04-11T09:18:08.817Z,9.90
2019-04-11T09:21:06.001Z,9.80
2019-04-11T09:23:50.680Z,9.90
2019-04-11T09:26:49.866Z,9.70
2019-04-11T09:29:42.728Z,9.70
2019-04-11T09:32:38.348Z,9.80
2019-04-11T09:35:43.679Z,9.90
2019-04-11T09:38:30.599Z,10.00
2019-04-11T09:41:24.693Z,10.20
2019-04-11T09:44:14.865Z,10.30
2019-04-11T09:47:05.385Z,10.50
2019-04-11T09:49:58.042Z,10.60
2019-04-11T09:52:47.761Z,10.70
2019-04-11T09:55:43.763Z,10.80
2019-04-11T09:58:29.523Z,10.50
2019-04-11T10:01:31.387Z,10.50
2019-04-11T10:04:18.838Z,10.60
2019-04-11T10:07:23.975Z,10.70
2019-04-11T10:10:10.807Z,10.60
2019-04-11T10:13:16.358Z,10.70
2019-04-11T10:16:12.528Z,10.70
2019-04-11T10:19:05.477Z,10.60
2019-04-11T10:22:04.894Z,10.50
2019-04-11T10:24:51.603Z,10.50
2019-04-11T10:27:38.658Z,10.60
2019-04-11T10:30:42.362Z,10.60
2019-04-11T10:33:29.285Z,10.70
2019-04-11T10:36:15.889Z,10.80
2019-04-11T10:39:02.804Z,10.90
2019-04-11T10:41:50.555Z,11.00
2019-04-11T10:44:54.524Z,11.00
2019-04-11T10:47:39.324Z,11.00
2019-04-11T10:50:36.043Z,11.00
2019-04-11T10:53:20.970Z,11.00
2019-04-11T10:56:08.459Z,11.10
2019-04-11T10:58:53.528Z,11.20
2019-04-11T11:01:58.164Z,11.40
2019-04-11T11:07:35.420Z,11.60
2019-04-11T11:10:23.472Z,11.70
2019-04-11T11:13:13.926Z,11.80
2019-04-11T11:15:58.581Z,11.90
2019-04-11T11:19:20.633Z,12.00
2019-04-11T11:21:35.689Z,11.90
2019-04-11T11:24:29.659Z,11.80
2019-04-11T11:27:15.718Z,11.90
2019-04-11T11:30:20.874Z,12.00
2019-04-11T11:33:07.910Z,12.10
2019-04-11T11:36:13.443Z,12.20
2019-04-11T11:39:02.499Z,12.20
2019-04-11T11:42:06.294Z,12.10
2019-04-11T11:44:55.816Z,12.00
2019-04-11T11:47:51.484Z,12.10
2019-04-11T11:50:37.598Z,12.10
2019-04-11T11:53:42.588Z,12.20
2019-04-11T11:56:27.340Z,12.00
2019-04-11T11:59:23.098Z,12.10
2019-04-11T12:02:10.591Z,12.30
2019-04-11T12:05:00.313Z,12.20
2019-04-11T12:07:56.083Z,12.20
2019-04-11T12:10:43.705Z,12.00
2019-04-11T12:13:47.499Z,11.90
2019-04-11T12:16:56.082Z,11.80
2019-04-11T12:19:52.921Z,11.80
2019-04-11T12:22:34.820Z,12.00
2019-04-11T12:25:22.918Z,11.90
2019-04-11T12:28:19.848Z,11.70
2019-04-11T12:31:07.138Z,11.80
2019-04-11T12:33:54.073Z,12.00
2019-04-11T12:36:48.044Z,12.00
2019-04-11T12:39:35.411Z,11.90
2019-04-11T12:42:22.712Z,12.00
2019-04-11T12:45:26.209Z,12.00
2019-04-11T12:48:12.086Z,12.10
2019-04-11T12:51:02.557Z,12.20
2019-04-11T12:53:47.398Z,12.20
2019-04-11T12:56:34.100Z,12.10
2019-04-11T12:59:19.209Z,12.10
2019-04-11T13:02:20.928Z,12.20
2019-04-11T13:05:07.741Z,12.30
2019-04-11T13:08:11.367Z,12.40
2019-04-11T13:10:56.000Z,12.40
2019-04-11T13:13:51.948Z,12.40
2019-04-11T13:16:38.532Z,12.30
2019-04-11T13:19:42.200Z,12.40
2019-04-11T13:22:28.656Z,12.50
2019-04-11T13:25:21.208Z,12.60
2019-04-11T13:28:05.648Z,12.60
2019-04-11T13:30:57.630Z,12.50
2019-04-11T13:33:42.088Z,12.50
2019-04-11T13:36:37.936Z,12.60
2019-04-11T13:39:23.173Z,12.70
2019-04-11T13:42:19.837Z,12.80
2019-04-11T13:45:04.776Z,12.80
2019-04-11T13:48:00.596Z,12.80
2019-04-11T13:50:46.391Z,12.80
2019-04-11T13:53:32.742Z,12.90
2019-04-11T13:56:19.524Z,12.90
2019-04-11T13:59:18.479Z,12.90
2019-04-11T14:02:14.276Z,12.80
2019-04-11T14:05:01.742Z,12.90
2019-04-11T14:07:48.184Z,12.90
2019-04-11T14:10:32.635Z,12.90
2019-04-11T14:13:17.841Z,12.90
2019-04-11T14:16:04.441Z,12.80
2019-04-11T14:19:02.028Z,12.90
2019-04-11T14:21:48.552Z,12.90
2019-04-11T14:24:35.162Z,12.80
2019-04-11T14:27:26.085Z,12.80
2019-04-11T14:30:12.585Z,12.90
2019-04-11T14:32:57.284Z,13.00
2019-04-11T14:35:57.725Z,12.90
2019-04-11T14:38:46.694Z,12.90
2019-04-11T14:41:41.524Z,12.70
2019-04-11T14:44:26.872Z,12.80
2019-04-11T14:47:16.411Z,12.90
2019-04-11T14:50:03.114Z,12.90
2019-04-11T14:52:49.591Z,13.00
2019-04-11T14:55:36.743Z,13.10
2019-04-11T14:58:23.772Z,13.20
2019-04-11T15:01:10.797Z,13.10
2019-04-11T15:04:01.945Z,13.20
2019-04-11T15:06:51.709Z,13.30
2019-04-11T15:09:47.470Z,13.30
2019-04-11T15:12:36.349Z,13.30
2019-04-11T15:15:35.056Z,13.30
2019-04-11T15:18:20.661Z,13.30
2019-04-11T15:21:07.366Z,13.20
2019-04-11T15:23:52.451Z,13.20
2019-04-11T15:26:51.283Z,13.20
2019-04-11T15:29:35.956Z,13.20
2019-04-11T15:32:29.026Z,13.50
2019-04-11T15:35:14.678Z,14.70
2019-04-11T15:38:19.572Z,16.50
2019-04-11T15:41:06.104Z,17.60
2019-04-11T15:43:58.989Z,19.20
2019-04-11T15:46:47.617Z,21.00
2019-04-11T15:49:35.298Z,22.40
2019-04-11T15:52:20.576Z,23.80
2019-04-11T15:55:13.335Z,24.50
2019-04-11T15:57:58.040Z,24.80
2019-04-11T16:00:44.763Z,25.10
2019-04-11T16:03:29.186Z,25.70
2019-04-11T16:06:35.238Z,26.50
2019-04-11T16:09:23.345Z,26.80
2019-04-11T16:12:18.895Z,27.30
2019-04-11T16:15:08.679Z,27.30
2019-04-11T16:18:15.727Z,27.00
2019-04-11T16:21:03.442Z,27.10
2019-04-11T16:23:50.236Z,27.30
2019-04-11T16:26:40.023Z,27.50
2019-04-11T16:29:30.149Z,27.90
2019-04-11T16:32:16.257Z,27.90
2019-04-11T16:35:05.633Z,27.90
2019-04-11T16:37:52.276Z,27.90
2019-04-11T16:40:55.721Z,27.50
2019-04-11T16:43:42.247Z,26.80
2019-04-11T16:46:48.290Z,25.90
2019-04-11T16:49:32.959Z,24.90
2019-04-11T16:52:17.842Z,23.60
2019-04-11T16:55:03.654Z,22.40
2019-04-11T16:57:50.284Z,21.10
2019-04-11T17:00:35.852Z,20.30
2019-04-11T17:03:24.767Z,19.40
2019-04-11T17:06:28.781Z,18.50
2019-04-11T17:09:15.343Z,17.50
2019-04-11T17:12:00.073Z,17.20
2019-04-11T17:14:44.946Z,17.10
2019-04-11T17:17:31.028Z,17.00
2019-04-11T17:20:16.111Z,17.00
2019-04-11T17:23:01.040Z,17.50
2019-04-11T17:25:48.118Z,17.50
2019-04-11T17:28:32.255Z,16.90
2019-04-11T17:31:16.951Z,16.70
2019-04-11T17:34:02.418Z,16.40
2019-04-11T17:36:47.545Z,15.50
2019-04-11T17:39:32.216Z,15.20
2019-04-11T17:42:16.804Z,14.90
2019-04-11T17:45:02.443Z,14.60
2019-04-11T17:47:47.079Z,14.10
2019-04-11T17:50:32.729Z,13.50
2019-04-11T17:53:18.304Z,13.10
2019-04-11T17:56:02.904Z,12.70
2019-04-11T17:58:49.596Z,12.40
2019-04-11T18:03:02.170Z,12.00
2019-04-11T18:05:47.571Z,11.80
2019-04-11T18:08:32.160Z,11.50
2019-04-11T18:11:16.619Z,11.30
2019-04-11T18:14:01.532Z,11.20
2019-04-11T18:16:46.400Z,11.00
2019-04-11T18:19:31.305Z,10.80
2019-04-11T18:22:18.248Z,10.70
2019-04-11T18:25:02.935Z,10.50
2019-04-11T18:27:52.846Z,10.40
2019-04-11T18:35:32.832Z,9.90
2019-04-11T18:38:17.479Z,9.90
2019-04-11T18:41:02.192Z,9.80
2019-04-11T18:43:47.831Z,9.70
2019-04-11T18:46:32.418Z,9.60
2019-04-11T18:49:19.405Z,9.50
2019-04-11T18:51:59.109Z,9.30
2019-04-11T18:54:50.075Z,9.30
2019-04-11T18:57:34.709Z,9.30
2019-04-11T19:00:20.485Z,9.20
2019-04-11T19:03:05.252Z,9.10
2019-04-11T19:05:49.896Z,9.10
2019-04-11T19:08:34.797Z,9.00
2019-04-11T19:11:21.263Z,8.90
2019-04-11T19:14:05.932Z,8.90
2019-04-11T19:16:50.749Z,8.80
2019-04-11T19:19:35.195Z,8.80
2019-04-11T19:22:36.837Z,8.70
2019-04-11T19:25:11.789Z,8.60
2019-04-11T19:28:00.928Z,8.60
2019-04-11T19:30:45.613Z,8.60
2019-04-11T19:33:34.053Z,8.50
2019-04-11T19:36:19.311Z,8.50
2019-04-11T19:39:04.653Z,8.50
2019-04-11T19:41:49.716Z,8.40
2019-04-11T19:44:35.213Z,8.40
2019-04-11T19:47:21.678Z,8.30
2019-04-11T19:50:06.951Z,8.30
2019-04-11T19:52:51.711Z,8.20
2019-04-11T19:55:47.707Z,8.20
2019-04-11T19:58:32.201Z,8.20
2019-04-11T20:01:16.967Z,8.10
2019-04-11T20:04:02.793Z,8.00
2019-04-11T20:06:47.685Z,8.00
2019-04-11T20:09:32.186Z,7.90
2019-04-11T20:12:17.067Z,7.80
2019-04-11T20:15:04.594Z,7.80
2019-04-11T20:17:51.930Z,7.70
2019-04-11T20:20:46.536Z,7.80
2019-04-11T20:23:31.457Z,7.60
2019-04-11T20:26:19.952Z,7.60
2019-04-11T20:29:03.612Z,7.50
2019-04-11T20:31:48.488Z,7.50
2019-04-11T20:34:32.947Z,7.50
2019-04-11T20:37:17.915Z,7.40
2019-04-11T20:40:03.090Z,7.50
2019-04-11T20:42:53.892Z,7.40
2019-04-11T20:45:39.766Z,7.40
2019-04-11T20:48:24.333Z,7.40
2019-04-11T20:51:09.028Z,7.30
2019-04-11T20:53:54.596Z,7.30
2019-04-11T20:56:40.377Z,7.20
2019-04-11T20:59:34.556Z,7.20
2019-04-11T21:02:12.033Z,7.20
2019-04-11T21:04:58.979Z,7.20
2019-04-11T21:07:43.338Z,7.30
2019-04-11T21:10:28.136Z,7.20
2019-04-11T21:13:12.870Z,7.20
2019-04-11T21:15:58.732Z,7.10
2019-04-11T21:18:43.282Z,7.20
2019-04-11T21:21:31.216Z,7.20
2019-04-11T21:24:16.104Z,7.20
2019-04-11T21:27:00.841Z,7.10
2019-04-11T21:29:45.571Z,7.10
2019-04-11T21:32:26.697Z,7.10
2019-04-11T21:35:11.791Z,7.20
2019-04-11T21:38:00.178Z,7.00
2019-04-11T21:40:44.717Z,7.10
2019-04-11T21:43:29.361Z,7.00
2019-04-11T21:46:14.042Z,7.00
2019-04-11T21:48:58.760Z,6.90
2019-04-11T21:51:43.673Z,6.90
2019-04-11T21:54:28.427Z,6.90
2019-04-11T21:57:12.971Z,6.90
2019-04-11T21:59:57.733Z,6.80
2019-04-11T22:02:42.621Z,6.70
2019-04-11T22:05:29.205Z,6.70
2019-04-11T22:08:09.125Z,6.60
2019-04-11T22:10:54.253Z,6.70
2019-04-11T22:13:40.393Z,6.60
2019-04-11T22:16:25.892Z,6.60
2019-04-11T22:19:13.982Z,6.50
2019-04-11T22:21:57.416Z,6.40
2019-04-11T22:24:42.056Z,6.50
2019-04-11T22:27:26.917Z,6.40
2019-04-11T22:30:12.420Z,6.30
2019-04-11T22:33:01.996Z,6.30
2019-04-11T22:35:46.565Z,6.30
2019-04-11T22:38:31.572Z,6.30
2019-04-11T22:41:16.368Z,6.30
2019-04-11T22:44:00.984Z,6.20
2019-04-11T22:46:45.422Z,6.20
2019-04-11T22:49:30.101Z,6.20
2019-04-11T22:52:14.592Z,6.20
2019-04-11T22:54:59.286Z,6.20
2019-04-11T22:57:44.374Z,6.10
2019-04-11T23:00:29.663Z,6.10
2019-04-11T23:03:17.157Z,6.10
2019-04-11T23:06:02.292Z,6.10
2019-04-11T23:08:48.515Z,6.10
2019-04-11T23:11:34.902Z,6.00
2019-04-11T23:14:22.048Z,6.00
2019-04-11T23:17:06.531Z,6.00
2019-04-11T23:19:52.416Z,6.00
2019-04-11T23:22:37.375Z,6.00
2019-04-11T23:25:22.068Z,5.90
2019-04-11T23:28:06.998Z,5.90
2019-04-11T23:30:51.699Z,5.90
2019-04-11T23:33:36.136Z,5.90
2019-04-11T23:36:21.256Z,5.80
2019-04-11T23:39:06.479Z,5.80
2019-04-11T23:41:50.924Z,5.70
2019-04-11T23:44:35.719Z,5.70
2019-04-11T23:47:23.174Z,5.60
2019-04-11T23:50:07.099Z,5.60
2019-04-11T23:52:51.675Z,5.60
2019-04-11T23:55:36.261Z,5.50
2019-04-11T23:58:21.028Z,5.50
